Time;durP1;ratioP1;P1;durP2;ratioP2;P2;SDS_P1;SDS_P2;PMS_P1;PMS_P2;Temp;Humidity;BMP_temperature;BMP_pressure;BME280_temperature;BME280_humidity;BME280_pressure;Samples;Min_cycle;Max_cycle;Signal;HPM_P1;HPM_P2
2022/06/09 00:01:14;;;;;;;20.45;6.85;;;;;;;;;;5324215;27;20032;-88
2022/06/09 00:03:53;;;;;;;18.73;7.35;;;;;;;;;;5321353;27;20050;-89
2022/06/09 00:06:28;;;;;;;24.83;7.43;;;;;;;;;;5323898;27;20047;-88
2022/06/09 00:09:03;;;;;;;25.60;8.25;;;;;;;;;;5322044;27;20098;-89
2022/06/09 00:11:37;;;;;;;18.48;7.80;;;;;;;;;;5291070;28;20025;-88
2022/06/09 00:14:09;;;;;;;20.05;8.05;;;;;;;;;;5322023;27;20017;-88
2022/06/09 00:16:41;;;;;;;22.38;8.05;;;;;;;;;;5288131;27;20402;-89
2022/06/09 00:19:13;;;;;;;21.60;7.97;;;;;;;;;;5308139;28;20079;-88
2022/06/09 00:21:44;;;;;;;21.50;7.82;;;;;;;;;;5318473;27;20511;-89
2022/06/09 00:24:17;;;;;;;28.17;8.38;;;;;;;;;;5321510;27;20048;-88
2022/06/09 00:26:48;;;;;;;21.60;8.45;;;;;;;;;;5321639;27;20119;-88
2022/06/09 00:29:19;;;;;;;20.90;7.83;;;;;;;;;;5316355;28;20122;-88
2022/06/09 00:31:51;;;;;;;23.60;7.70;;;;;;;;;;5324071;27;20677;-88
2022/06/09 00:34:22;;;;;;;20.70;7.20;;;;;;;;;;5331385;27;20273;-89
2022/06/09 00:36:53;;;;;;;23.60;7.57;;;;;;;;;;5297873;28;20310;-88
2022/06/09 00:39:24;;;;;;;22.10;7.77;;;;;;;;;;5294784;28;20056;-89
2022/06/09 00:41:56;;;;;;;22.40;7.40;;;;;;;;;;5311953;27;20685;-89
2022/06/09 00:44:29;;;;;;;35.67;8.18;;;;;;;;;;5322115;27;20279;-88
2022/06/09 00:47:02;;;;;;;30.52;7.30;;;;;;;;;;5324372;27;20031;-88
2022/06/09 00:49:45;;;;;;;26.80;8.25;;;;;;;;;;5292834;28;20024;-88
2022/06/09 00:52:19;;;;;;;27.27;7.38;;;;;;;;;;5305778;27;20036;-88
2022/06/09 00:54:54;;;;;;;26.20;8.20;;;;;;;;;;5312905;27;20028;-87
2022/06/09 00:57:29;;;;;;;28.23;7.32;;;;;;;;;;5301736;28;20040;-87
2022/06/09 01:00:06;;;;;;;24.73;7.50;;;;;;;;;;5296590;27;20058;-87
2022/06/09 01:02:38;;;;;;;26.23;8.65;;;;;;;;;;5314888;27;20074;-87
2022/06/09 01:05:10;;;;;;;29.02;7.88;;;;;;;;;;5295641;27;20549;-87
2022/06/09 01:07:47;;;;;;;25.48;9.75;;;;;;;;;;5308839;28;20444;-87
2022/06/09 01:10:18;;;;;;;31.45;8.88;;;;;;;;;;5323176;27;20033;-87
2022/06/09 01:12:49;;;;;;;24.23;8.10;;;;;;;;;;5305837;28;20036;-87
2022/06/09 01:15:22;;;;;;;26.67;8.97;;;;;;;;;;5319965;27;20032;-87
2022/06/09 01:17:59;;;;;;;24.92;8.40;;;;;;;;;;5331672;27;20290;-87
2022/06/09 01:20:42;;;;;;;30.58;9.55;;;;;;;;;;5322874;27;20032;-87
2022/06/09 01:23:39;;;;;;;28.08;10.00;;;;;;;;;;5314876;27;20401;-88
2022/06/09 01:26:29;;;;;;;35.47;10.38;;;;;;;;;;5282711;27;20059;-88
2022/06/09 01:29:14;;;;;;;30.15;9.27;;;;;;;;;;5311483;27;20041;-87
2022/06/09 01:31:45;;;;;;;35.22;10.00;;;;;;;;;;5298763;27;20958;-88
2022/06/09 01:34:40;;;;;;;30.77;9.77;;;;;;;;;;5291401;28;20118;-87
2022/06/09 01:37:22;;;;;;;27.77;9.80;;;;;;;;;;5312378;27;20283;-87
2022/06/09 01:40:01;;;;;;;37.53;9.70;;;;;;;;;;5310849;27;20028;-88
2022/06/09 01:42:37;;;;;;;30.02;9.50;;;;;;;;;;5304184;27;20133;-87
2022/06/09 01:45:14;;;;;;;29.88;10.05;;;;;;;;;;5327793;27;20125;-88
2022/06/09 01:47:48;;;;;;;40.55;9.90;;;;;;;;;;5322211;27;20119;-88
2022/06/09 01:50:27;;;;;;;39.42;10.07;;;;;;;;;;5334618;27;20036;-88
2022/06/09 01:52:59;;;;;;;34.08;10.10;;;;;;;;;;5325726;27;20025;-87
2022/06/09 01:55:32;;;;;;;35.97;9.48;;;;;;;;;;5329399;27;20047;-88
2022/06/09 01:58:04;;;;;;;37.55;9.63;;;;;;;;;;5329257;27;20060;-87
2022/06/09 02:00:35;;;;;;;34.40;10.32;;;;;;;;;;5305476;27;20507;-87
2022/06/09 02:03:09;;;;;;;36.95;10.80;;;;;;;;;;5331206;27;20043;-87
2022/06/09 02:05:44;;;;;;;32.65;10.32;;;;;;;;;;5309061;28;20073;-87
2022/06/09 02:08:16;;;;;;;29.85;10.15;;;;;;;;;;5308256;27;20198;-87
2022/06/09 02:10:52;;;;;;;32.40;10.98;;;;;;;;;;5304120;27;20023;-88
2022/06/09 02:13:29;;;;;;;29.08;10.73;;;;;;;;;;5314973;27;20081;-88
2022/06/09 02:16:03;;;;;;;33.65;12.00;;;;;;;;;;5300840;27;20419;-88
2022/06/09 02:18:37;;;;;;;35.63;11.05;;;;;;;;;;5307809;27;20028;-88
2022/06/09 02:21:15;;;;;;;33.88;11.30;;;;;;;;;;5297231;28;20039;-88
2022/06/09 02:23:47;;;;;;;39.45;12.05;;;;;;;;;;5294831;27;20129;-87
2022/06/09 02:26:19;;;;;;;34.42;12.13;;;;;;;;;;5303078;28;20061;-88
2022/06/09 02:28:51;;;;;;;42.45;12.00;;;;;;;;;;5313092;27;20028;-88
2022/06/09 02:31:22;;;;;;;41.65;13.13;;;;;;;;;;5302026;27;20081;-88
2022/06/09 02:33:54;;;;;;;42.45;13.90;;;;;;;;;;5300842;28;20032;-87
2022/06/09 02:36:25;;;;;;;43.60;12.98;;;;;;;;;;5303749;27;20020;-88
2022/06/09 02:38:57;;;;;;;41.40;13.60;;;;;;;;;;5310253;27;20132;-88
2022/06/09 02:41:28;;;;;;;55.15;15.15;;;;;;;;;;5315769;27;20025;-87
2022/06/09 02:44:02;;;;;;;45.00;13.90;;;;;;;;;;5323165;27;20024;-87
2022/06/09 02:46:33;;;;;;;38.60;13.40;;;;;;;;;;5315381;27;20278;-87
2022/06/09 02:49:05;;;;;;;36.88;14.15;;;;;;;;;;5292609;28;20024;-87
2022/06/09 02:51:39;;;;;;;39.78;13.32;;;;;;;;;;5305619;27;20030;-88
2022/06/09 02:54:12;;;;;;;39.35;14.60;;;;;;;;;;5330306;27;20082;-87
2022/06/09 02:56:43;;;;;;;35.97;13.73;;;;;;;;;;5310949;28;20456;-88
2022/06/09 02:59:14;;;;;;;46.70;15.68;;;;;;;;;;5310182;27;20039;-88
2022/06/09 03:01:46;;;;;;;35.47;13.75;;;;;;;;;;5319555;27;20028;-87
2022/06/09 03:04:17;;;;;;;41.60;14.07;;;;;;;;;;5308711;28;20024;-87
2022/06/09 03:06:48;;;;;;;49.30;15.93;;;;;;;;;;5300104;27;20131;-87
2022/06/09 03:09:19;;;;;;;38.80;15.10;;;;;;;;;;5314325;27;20024;-88
2022/06/09 03:11:51;;;;;;;43.53;16.48;;;;;;;;;;5298520;28;20728;-87
2022/06/09 03:14:22;;;;;;;48.22;16.50;;;;;;;;;;5321006;27;20032;-87
2022/06/09 03:16:54;;;;;;;43.03;15.30;;;;;;;;;;5332061;27;20032;-87
2022/06/09 03:19:25;;;;;;;38.90;13.88;;;;;;;;;;5299447;27;20503;-87
2022/06/09 03:21:56;;;;;;;41.17;14.68;;;;;;;;;;5339502;27;20032;-88
2022/06/09 03:24:27;;;;;;;43.37;15.10;;;;;;;;;;5317525;27;20418;-88
2022/06/09 03:26:59;;;;;;;35.17;13.73;;;;;;;;;;5320684;27;20274;-88
2022/06/09 03:29:30;;;;;;;53.25;17.48;;;;;;;;;;5312584;28;20401;-88
2022/06/09 03:32:01;;;;;;;39.85;15.23;;;;;;;;;;5315038;27;20032;-87
2022/06/09 03:34:33;;;;;;;42.28;15.25;;;;;;;;;;5317228;28;20032;-88
2022/06/09 03:37:07;;;;;;;41.80;15.60;;;;;;;;;;5330794;27;20021;-88
2022/06/09 03:39:38;;;;;;;34.72;14.63;;;;;;;;;;5311148;27;20330;-89
2022/06/09 03:42:09;;;;;;;43.38;15.25;;;;;;;;;;5304431;27;20523;-89
2022/06/09 03:44:41;;;;;;;45.92;14.68;;;;;;;;;;5337168;27;20158;-88
2022/06/09 03:47:14;;;;;;;47.58;15.90;;;;;;;;;;5310292;27;20400;-88
2022/06/09 03:49:45;;;;;;;50.60;16.23;;;;;;;;;;5296475;28;20455;-88
2022/06/09 03:52:17;;;;;;;48.58;15.85;;;;;;;;;;5303524;27;20072;-88
2022/06/09 03:54:54;;;;;;;43.28;15.73;;;;;;;;;;5326266;27;20020;-88
2022/06/09 03:57:26;;;;;;;47.97;16.23;;;;;;;;;;5293587;28;20392;-88
2022/06/09 03:59:57;;;;;;;43.72;16.48;;;;;;;;;;5290562;28;20017;-89
2022/06/09 04:02:28;;;;;;;45.50;16.93;;;;;;;;;;5298867;28;20069;-89
2022/06/09 04:05:01;;;;;;;45.70;16.63;;;;;;;;;;5297997;27;20279;-89
2022/06/09 04:07:35;;;;;;;57.28;18.58;;;;;;;;;;5321800;27;20027;-89
2022/06/09 04:10:06;;;;;;;38.47;15.68;;;;;;;;;;5310307;27;20417;-89
2022/06/09 04:12:37;;;;;;;54.83;18.13;;;;;;;;;;5312308;27;20024;-89
2022/06/09 04:15:09;;;;;;;48.50;17.77;;;;;;;;;;5312571;27;20539;-89
2022/06/09 04:17:41;;;;;;;46.15;17.30;;;;;;;;;;5312433;27;20381;-89
2022/06/09 04:20:13;;;;;;;45.97;16.20;;;;;;;;;;5333853;27;20399;-88
2022/06/09 04:22:44;;;;;;;45.17;16.65;;;;;;;;;;5316853;28;20131;-89
2022/06/09 04:25:16;;;;;;;46.72;17.15;;;;;;;;;;5325912;27;20522;-88
2022/06/09 04:27:47;;;;;;;51.60;17.17;;;;;;;;;;5325625;27;20036;-88
2022/06/09 04:30:19;;;;;;;48.38;17.27;;;;;;;;;;5319666;27;20118;-88
2022/06/09 04:32:53;;;;;;;44.88;17.15;;;;;;;;;;5310034;28;20024;-89
2022/06/09 04:35:25;;;;;;;40.70;15.88;;;;;;;;;;5332631;27;20468;-88
2022/06/09 04:38:03;;;;;;;51.80;17.02;;;;;;;;;;5326080;27;20035;-88
2022/06/09 04:40:35;;;;;;;51.97;18.75;;;;;;;;;;5312492;27;20139;-88
2022/06/09 04:43:09;;;;;;;48.03;17.88;;;;;;;;;;5312362;27;20067;-88
2022/06/09 04:45:40;;;;;;;56.28;19.45;;;;;;;;;;5326424;27;20452;-88
2022/06/09 04:48:12;;;;;;;51.58;17.77;;;;;;;;;;5309810;27;20032;-88
2022/06/09 04:50:46;;;;;;;46.88;17.15;;;;;;;;;;5321394;27;20318;-88
2022/06/09 04:53:17;;;;;;;47.65;18.15;;;;;;;;;;5329072;27;20028;-88
2022/06/09 04:55:49;;;;;;;53.67;18.10;;;;;;;;;;5321711;27;20422;-88
2022/06/09 04:58:21;;;;;;;39.30;16.20;;;;;;;;;;5326722;27;20024;-87
2022/06/09 05:00:52;;;;;;;55.65;19.23;;;;;;;;;;5323552;27;20472;-88
2022/06/09 05:03:24;;;;;;;49.78;19.75;;;;;;;;;;5308058;28;20051;-88
2022/06/09 05:05:56;;;;;;;48.92;18.60;;;;;;;;;;5289680;28;20705;-87
2022/06/09 05:08:27;;;;;;;51.08;17.95;;;;;;;;;;5292778;28;20033;-87
2022/06/09 05:10:58;;;;;;;41.05;18.05;;;;;;;;;;5319171;27;20043;-89
2022/06/09 05:13:30;;;;;;;41.33;17.23;;;;;;;;;;5299462;28;20099;-87
2022/06/09 05:16:02;;;;;;;52.30;21.10;;;;;;;;;;5308149;28;20381;-89
2022/06/09 05:18:33;;;;;;;35.13;16.90;;;;;;;;;;5307376;28;20415;-88
2022/06/09 05:21:05;;;;;;;42.25;20.35;;;;;;;;;;5300111;28;20025;-88
2022/06/09 05:23:37;;;;;;;40.55;18.05;;;;;;;;;;5310186;28;20033;-88
2022/06/09 05:26:09;;;;;;;40.08;16.00;;;;;;;;;;5296534;28;20044;-88
2022/06/09 05:28:40;;;;;;;33.53;14.75;;;;;;;;;;5305363;28;20021;-88
2022/06/09 05:31:30;;;;;;;28.48;12.65;;;;;;;;;;5328146;27;20037;-87
2022/06/09 05:34:03;;;;;;;29.25;10.50;;;;;;;;;;5298230;28;20098;-87
2022/06/09 05:36:35;;;;;;;25.58;10.07;;;;;;;;;;5302593;28;20131;-86
2022/06/09 05:44:52;;;;;;;34.70;10.60;;;;;;;;;;5302318;28;20029;-87
2022/06/09 05:47:23;;;;;;;27.02;9.63;;;;;;;;;;5299743;28;20104;-87
2022/06/09 05:49:55;;;;;;;30.92;10.82;;;;;;;;;;5294331;28;20124;-87
2022/06/09 05:52:27;;;;;;;26.15;10.80;;;;;;;;;;5301944;28;20422;-88
2022/06/09 05:58:25;;;;;;;26.48;9.80;;;;;;;;;;5294494;28;20033;-88
2022/06/09 06:01:00;;;;;;;28.38;10.95;;;;;;;;;;5308324;28;20033;-88
2022/06/09 06:03:34;;;;;;;25.75;9.82;;;;;;;;;;5306259;28;20020;-89
2022/06/09 06:08:56;;;;;;;23.83;9.20;;;;;;;;;;5330283;28;20048;-88
2022/06/09 06:11:27;;;;;;;19.65;8.48;;;;;;;;;;5302620;28;20027;-89
2022/06/09 06:14:10;;;;;;;21.95;7.40;;;;;;;;;;5317406;27;20795;-89
2022/06/09 06:16:47;;;;;;;19.55;6.90;;;;;;;;;;5328684;27;20032;-89
2022/06/09 06:19:18;;;;;;;;;;;;;;;;;;5309547;28;20081;-88
2022/06/09 06:21:50;;;;;;;18.23;7.50;;;;;;;;;;5327982;27;19935;-89
2022/06/09 06:24:23;;;;;;;20.52;7.47;;;;;;;;;;5308377;28;20043;-89
2022/06/09 06:27:30;;;;;;;24.15;7.57;;;;;;;;;;5308636;28;20528;-88
2022/06/09 06:30:01;;;;;;;20.45;7.25;;;;;;;;;;5292694;28;20514;-88
2022/06/09 06:32:32;;;;;;;17.20;7.05;;;;;;;;;;5309545;28;20032;-89
2022/06/09 06:35:04;;;;;;;19.48;7.28;;;;;;;;;;5308796;28;20099;-88
2022/06/09 06:37:38;;;;;;;21.83;7.25;;;;;;;;;;5308808;28;20555;-88
2022/06/09 06:40:13;;;;;;;16.15;6.35;;;;;;;;;;5309130;28;20059;-88
2022/06/09 06:42:47;;;;;;;13.20;5.93;;;;;;;;;;5310022;28;20051;-92
2022/06/09 06:45:21;;;;;;;18.60;6.15;;;;;;;;;;5333139;28;20036;-91
2022/06/09 06:47:56;;;;;;;18.25;6.55;;;;;;;;;;5310971;28;20106;-90
2022/06/09 06:50:53;;;;;;;17.92;6.32;;;;;;;;;;5327949;27;20473;-91
2022/06/09 06:53:46;;;;;;;;;;;;;;;;;;;;;
2022/06/09 06:56:42;;;;;;;15.23;5.32;;;;;;;;;;5328053;28;40972;-91
2022/06/09 06:59:24;;;;;;;11.60;5.20;;;;;;;;;;5327267;28;20027;-88
2022/06/09 07:01:58;;;;;;;12.73;5.45;;;;;;;;;;5328159;28;20488;-88
2022/06/09 07:04:30;;;;;;;14.30;5.97;;;;;;;;;;5337483;27;20563;-86
2022/06/09 07:07:06;;;;;;;17.77;6.30;;;;;;;;;;5319072;28;20330;-87
2022/06/09 07:09:40;;;;;;;14.48;5.38;;;;;;;;;;5307739;28;20197;-87
2022/06/09 07:12:14;;;;;;;11.27;5.15;;;;;;;;;;5308777;28;20378;-87
2022/06/09 07:14:45;;;;;;;14.13;4.90;;;;;;;;;;5307182;28;20016;-87
2022/06/09 07:17:17;;;;;;;11.57;4.63;;;;;;;;;;5307990;28;20077;-87
2022/06/09 07:19:48;;;;;;;11.63;4.20;;;;;;;;;;5309580;27;20279;-87
2022/06/09 07:22:19;;;;;;;12.13;4.40;;;;;;;;;;5312511;28;20567;-86
2022/06/09 07:24:55;;;;;;;6.40;3.00;;;;;;;;;;5328604;28;20025;-87
2022/06/09 07:27:26;;;;;;;8.68;2.55;;;;;;;;;;5326379;28;20030;-86
2022/06/09 07:29:58;;;;;;;7.50;2.50;;;;;;;;;;5308279;28;20144;-87
2022/06/09 07:32:30;;;;;;;3.30;2.08;;;;;;;;;;5289144;27;20031;-87
2022/06/09 07:35:01;;;;;;;6.20;2.15;;;;;;;;;;5286511;28;20028;-87
2022/06/09 07:37:32;;;;;;;4.95;1.67;;;;;;;;;;5306955;28;20472;-87
2022/06/09 07:40:04;;;;;;;6.22;1.83;;;;;;;;;;5305115;28;20017;-87
2022/06/09 07:42:36;;;;;;;4.30;1.73;;;;;;;;;;5304990;28;20029;-87
2022/06/09 07:45:09;;;;;;;2.72;1.42;;;;;;;;;;5303142;28;20038;-87
2022/06/09 07:47:40;;;;;;;3.53;1.73;;;;;;;;;;5305389;28;20013;-87
2022/06/09 07:50:12;;;;;;;4.07;1.33;;;;;;;;;;5286822;28;20090;-87
2022/06/09 07:52:48;;;;;;;4.10;1.30;;;;;;;;;;5305523;27;20021;-87
2022/06/09 07:55:22;;;;;;;3.40;1.00;;;;;;;;;;5306996;28;20460;-88
2022/06/09 07:57:54;;;;;;;3.60;1.45;;;;;;;;;;5307695;28;20024;-86
2022/06/09 08:00:27;;;;;;;3.58;0.90;;;;;;;;;;5325413;28;20498;-87
2022/06/09 08:03:04;;;;;;;3.75;1.10;;;;;;;;;;5308619;28;20087;-87
2022/06/09 08:05:35;;;;;;;;;;;;;;;;;;5325630;27;20044;-87
2022/06/09 08:08:06;;;;;;;3.97;1.03;;;;;;;;;;5306842;28;19911;-87
2022/06/09 08:10:41;;;;;;;5.50;1.45;;;;;;;;;;5325594;27;20008;-87
2022/06/09 08:13:16;;;;;;;3.60;1.13;;;;;;;;;;5325677;28;20061;-87
2022/06/09 08:15:47;;;;;;;3.92;1.23;;;;;;;;;;5325069;28;20534;-87
2022/06/09 08:18:18;;;;;;;2.25;1.17;;;;;;;;;;5314606;27;20021;-87
2022/06/09 08:20:52;;;;;;;6.60;1.40;;;;;;;;;;5304150;28;20055;-86
2022/06/09 08:23:28;;;;;;;3.22;1.98;;;;;;;;;;5304117;28;20031;-87
2022/06/09 08:26:08;;;;;;;3.30;1.10;;;;;;;;;;5323764;27;20027;-87
2022/06/09 08:28:39;;;;;;;3.90;1.33;;;;;;;;;;5306451;28;20472;-87
2022/06/09 08:31:11;;;;;;;6.03;1.55;;;;;;;;;;5307081;28;20020;-87
2022/06/09 08:33:42;;;;;;;4.57;1.75;;;;;;;;;;5306156;28;20459;-87
2022/06/09 08:36:16;;;;;;;2.47;1.30;;;;;;;;;;5306448;28;20027;-86
2022/06/09 08:38:48;;;;;;;4.78;1.73;;;;;;;;;;5306959;28;20111;-87
2022/06/09 08:41:33;;;;;;;3.45;1.25;;;;;;;;;;5325603;28;20590;-87
2022/06/09 08:44:07;;;;;;;3.90;1.55;;;;;;;;;;5306081;28;20028;-87
2022/06/09 08:46:49;;;;;;;4.38;1.58;;;;;;;;;;5306324;27;20122;-86
2022/06/09 08:49:32;;;;;;;3.15;1.50;;;;;;;;;;5316451;27;20024;-87
2022/06/09 08:52:13;;;;;;;3.15;1.50;;;;;;;;;;5304234;28;20028;-87
2022/06/09 08:54:45;;;;;;;4.82;1.50;;;;;;;;;;5304080;28;20020;-87
2022/06/09 08:57:19;;;;;;;3.55;1.10;;;;;;;;;;5304039;28;20429;-87
2022/06/09 08:59:53;;;;;;;7.85;1.10;;;;;;;;;;5303736;28;20024;-87
2022/06/09 09:02:30;;;;;;;3.28;1.13;;;;;;;;;;5311719;27;20020;-86
2022/06/09 09:05:23;;;;;;;2.35;1.10;;;;;;;;;;5324433;27;20476;-87
2022/06/09 09:07:56;;;;;;;4.28;1.33;;;;;;;;;;5289302;28;20089;-86
2022/06/09 09:11:02;;;;;;;4.55;1.77;;;;;;;;;;5304320;28;20028;-87
2022/06/09 09:13:52;;;;;;;2.92;1.10;;;;;;;;;;5257172;28;20086;-87
2022/06/09 09:16:30;;;;;;;3.95;1.27;;;;;;;;;;5324595;28;20039;-87
2022/06/09 09:19:02;;;;;;;5.43;1.65;;;;;;;;;;5307846;28;20120;-87
2022/06/09 09:21:56;;;;;;;3.88;1.23;;;;;;;;;;5296619;28;20051;-87
2022/06/09 09:24:46;;;;;;;3.58;1.20;;;;;;;;;;5303541;28;20488;-87
2022/06/09 09:27:18;;;;;;;3.60;1.17;;;;;;;;;;5327085;28;20484;-87
2022/06/09 09:29:55;;;;;;;3.53;1.25;;;;;;;;;;5308133;28;20043;-87
2022/06/09 09:32:28;;;;;;;6.20;1.85;;;;;;;;;;5309882;28;20021;-87
2022/06/09 09:35:00;;;;;;;4.75;1.75;;;;;;;;;;5309016;28;20092;-87
2022/06/09 09:37:38;;;;;;;5.93;1.80;;;;;;;;;;5324573;27;20070;-87
2022/06/09 09:40:25;;;;;;;5.93;1.80;;;;;;;;;;5324412;28;20024;-87
2022/06/09 09:42:56;;;;;;;;;;;;;;;;;;5325724;28;20157;-87
2022/06/09 09:45:36;;;;;;;3.67;1.43;;;;;;;;;;5326508;28;19928;-87
2022/06/09 09:48:17;;;;;;;5.60;1.70;;;;;;;;;;5306048;28;20020;-86
2022/06/09 09:50:54;;;;;;;6.72;1.85;;;;;;;;;;5324960;28;20029;-86
2022/06/09 09:53:34;;;;;;;4.38;1.60;;;;;;;;;;5305957;27;20588;-86
2022/06/09 09:56:18;;;;;;;6.57;2.38;;;;;;;;;;5307395;28;20029;-87
2022/06/09 09:58:49;;;;;;;3.50;1.50;;;;;;;;;;5287466;28;20016;-87
2022/06/09 10:01:20;;;;;;;6.70;1.73;;;;;;;;;;5295972;28;20029;-87
2022/06/09 10:09:53;;;;;;;6.13;2.33;;;;;;;;;;5303746;27;20460;-88
2022/06/09 10:12:27;;;;;;;12.68;3.55;;;;;;;;;;5310512;28;20024;-88
2022/06/09 10:15:04;;;;;;;8.77;4.75;;;;;;;;;;5304447;28;20032;-87
2022/06/09 10:17:39;;;;;;;7.30;2.65;;;;;;;;;;5287171;28;20087;-87
2022/06/09 10:20:13;;;;;;;10.63;3.97;;;;;;;;;;5287579;28;20029;-87
2022/06/09 10:23:02;;;;;;;8.63;4.43;;;;;;;;;;5302477;28;20078;-87
2022/06/09 10:25:41;;;;;;;10.02;6.07;;;;;;;;;;5312850;27;20032;-87
2022/06/09 10:28:16;;;;;;;7.85;6.07;;;;;;;;;;5321668;28;20025;-87
2022/06/09 10:30:54;;;;;;;9.38;5.28;;;;;;;;;;5287608;28;20166;-86
2022/06/09 10:33:44;;;;;;;9.13;6.07;;;;;;;;;;5321364;28;20647;-87
2022/06/09 10:36:40;;;;;;;8.95;5.43;;;;;;;;;;5305852;27;20490;-87
2022/06/09 10:39:15;;;;;;;7.50;5.03;;;;;;;;;;5321024;27;20040;-87
2022/06/09 10:41:55;;;;;;;8.55;4.57;;;;;;;;;;5321425;28;20066;-87
2022/06/09 10:44:34;;;;;;;6.88;3.63;;;;;;;;;;5308644;27;20029;-87
2022/06/09 10:55:55;;;;;;;7.28;2.97;;;;;;;;;;5345250;27;20020;-87
2022/06/09 10:58:31;;;;;;;4.85;1.85;;;;;;;;;;5341587;28;20031;-88
2022/06/09 11:01:03;;;;;;;6.70;2.15;;;;;;;;;;5345050;28;20103;-88
2022/06/09 11:03:42;;;;;;;3.78;2.10;;;;;;;;;;5328315;27;20017;-88
2022/06/09 11:06:13;;;;;;;3.83;1.63;;;;;;;;;;5325594;28;20052;-88
2022/06/09 11:08:48;;;;;;;5.40;1.90;;;;;;;;;;5331371;27;20119;-87
2022/06/09 11:11:26;;;;;;;4.95;1.75;;;;;;;;;;5311624;28;20103;-87
2022/06/09 11:14:00;;;;;;;6.13;1.80;;;;;;;;;;5308407;28;20398;-88
2022/06/09 11:16:35;;;;;;;4.03;1.58;;;;;;;;;;5322068;28;20048;-87
2022/06/09 11:19:24;;;;;;;3.55;1.30;;;;;;;;;;5320271;27;20435;-88
2022/06/09 11:22:14;;;;;;;4.97;1.35;;;;;;;;;;5320633;27;20087;-88
2022/06/09 11:24:52;;;;;;;5.93;1.88;;;;;;;;;;5314088;28;20028;-88
2022/06/09 11:27:29;;;;;;;4.00;1.77;;;;;;;;;;5308225;28;20407;-87
2022/06/09 11:30:05;;;;;;;6.10;1.92;;;;;;;;;;5325833;28;20028;-87
2022/06/09 11:32:40;;;;;;;5.53;1.77;;;;;;;;;;5307372;28;20020;-87
2022/06/09 11:35:24;;;;;;;5.47;1.80;;;;;;;;;;5326125;27;20040;-87
2022/06/09 11:38:09;;;;;;;6.32;1.70;;;;;;;;;;5307417;28;20423;-87
2022/06/09 11:40:46;;;;;;;5.10;1.67;;;;;;;;;;5307640;28;20093;-87
2022/06/09 11:43:17;;;;;;;6.82;1.90;;;;;;;;;;5326310;28;20476;-87
2022/06/09 11:45:52;;;;;;;7.90;2.00;;;;;;;;;;5308039;28;20067;-87
2022/06/09 11:48:28;;;;;;;7.50;2.03;;;;;;;;;;5307562;28;20486;-87
2022/06/09 11:51:00;;;;;;;7.95;2.00;;;;;;;;;;5301392;28;20025;-87
2022/06/09 11:53:39;;;;;;;5.97;1.70;;;;;;;;;;5291643;28;20027;-87
2022/06/09 11:56:33;;;;;;;7.05;1.83;;;;;;;;;;5307415;28;20032;-87
2022/06/09 11:59:04;;;;;;;7.72;2.00;;;;;;;;;;5325435;28;20130;-87
2022/06/09 12:01:43;;;;;;;7.23;2.00;;;;;;;;;;5308311;28;20028;-87
2022/06/09 12:04:34;;;;;;;4.93;1.90;;;;;;;;;;5326030;28;20024;-87
2022/06/09 12:07:13;;;;;;;6.38;2.00;;;;;;;;;;5324937;27;20155;-86
2022/06/09 12:09:50;;;;;;;7.20;2.08;;;;;;;;;;5290407;27;20040;-87
2022/06/09 12:12:24;;;;;;;6.28;2.05;;;;;;;;;;5307243;28;20503;-86
2022/06/09 12:15:25;;;;;;;10.90;2.15;;;;;;;;;;5325002;27;20399;-87
2022/06/09 12:17:58;;;;;;;8.05;2.20;;;;;;;;;;5293126;28;20038;-87
2022/06/09 12:20:30;;;;;;;7.53;2.78;;;;;;;;;;5326026;27;20024;-86
2022/06/09 12:23:20;;;;;;;7.90;2.65;;;;;;;;;;5325748;27;20023;-86
2022/06/09 12:26:10;;;;;;;10.50;1.88;;;;;;;;;;5313081;27;20036;-86
2022/06/09 12:28:52;;;;;;;7.63;1.98;;;;;;;;;;5303665;28;20082;-86
2022/06/09 12:31:25;;;;;;;7.53;2.33;;;;;;;;;;5304381;28;20020;-87
2022/06/09 12:34:02;;;;;;;9.48;3.78;;;;;;;;;;5304214;28;20029;-87
2022/06/09 12:36:44;;;;;;;8.27;2.95;;;;;;;;;;5304152;28;20036;-87
2022/06/09 12:39:20;;;;;;;9.15;2.90;;;;;;;;;;5303400;28;20051;-87
2022/06/09 12:41:53;;;;;;;7.32;2.90;;;;;;;;;;5325085;27;20086;-87
2022/06/09 12:44:37;;;;;;;7.80;2.72;;;;;;;;;;5306720;28;20020;-87
2022/06/09 12:47:13;;;;;;;6.13;2.45;;;;;;;;;;5306639;28;20177;-87
2022/06/09 12:49:44;;;;;;;;;;;;;;;;;;5306670;28;20071;-86
2022/06/09 12:52:24;;;;;;;6.75;2.90;;;;;;;;;;5325352;28;19912;-86
2022/06/09 12:55:16;;;;;;;5.32;2.28;;;;;;;;;;5306042;28;20028;-87
2022/06/09 12:57:58;;;;;;;8.15;2.50;;;;;;;;;;5300931;27;20037;-87
2022/06/09 13:00:35;;;;;;;8.35;2.97;;;;;;;;;;5304496;28;20021;-86
2022/06/09 13:03:14;;;;;;;6.38;2.67;;;;;;;;;;5318479;27;20105;-87
2022/06/09 13:05:46;;;;;;;6.72;2.55;;;;;;;;;;5318610;28;20513;-86
2022/06/09 13:08:23;;;;;;;7.10;2.67;;;;;;;;;;5319989;27;20086;-86
2022/06/09 13:11:00;;;;;;;7.38;2.22;;;;;;;;;;5314384;27;20431;-86
2022/06/09 13:13:40;;;;;;;8.25;2.78;;;;;;;;;;5305168;28;20032;-86
2022/06/09 13:16:13;;;;;;;4.10;1.98;;;;;;;;;;5293688;28;20085;-86
2022/06/09 13:18:46;;;;;;;7.70;1.98;;;;;;;;;;5305775;28;20066;-86
2022/06/09 13:21:22;;;;;;;6.35;1.70;;;;;;;;;;5324058;28;20556;-87
2022/06/09 13:23:56;;;;;;;8.27;1.35;;;;;;;;;;5321201;28;20119;-86
2022/06/09 13:26:38;;;;;;;7.80;1.70;;;;;;;;;;5323943;27;20448;-86
2022/06/09 13:29:16;;;;;;;6.13;1.38;;;;;;;;;;5302724;28;20477;-86
2022/06/09 13:31:48;;;;;;;5.28;1.63;;;;;;;;;;5293264;28;20024;-86
2022/06/09 13:34:25;;;;;;;8.77;1.67;;;;;;;;;;5327820;27;20502;-86
2022/06/09 13:36:56;;;;;;;5.30;1.40;;;;;;;;;;5309488;28;20039;-87
2022/06/09 13:39:28;;;;;;;5.43;1.57;;;;;;;;;;5310592;28;20021;-86
2022/06/09 13:42:18;;;;;;;;;;;;;;;;;;;;;
2022/06/09 13:44:50;;;;;;;6.15;1.20;;;;;;;;;;5325912;27;42074;-87
2022/06/09 13:47:29;;;;;;;5.75;1.17;;;;;;;;;;5291375;28;20548;-86
2022/06/09 13:50:08;;;;;;;8.15;2.08;;;;;;;;;;5288841;28;20023;-86
2022/06/09 13:52:47;;;;;;;4.53;1.20;;;;;;;;;;5288985;28;20048;-86
2022/06/09 13:55:21;;;;;;;4.00;1.20;;;;;;;;;;5289363;28;20191;-87
2022/06/09 13:57:55;;;;;;;4.65;1.20;;;;;;;;;;5306528;28;20063;-86
2022/06/09 14:00:47;;;;;;;6.70;1.10;;;;;;;;;;5288004;28;20020;-86
2022/06/09 14:03:22;;;;;;;6.45;1.52;;;;;;;;;;5308700;28;20036;-87
2022/06/09 14:05:58;;;;;;;4.40;1.30;;;;;;;;;;5290468;27;20047;-87
2022/06/09 14:08:29;;;;;;;;;;;;;;;;;;5316926;28;20023;-88
2022/06/09 14:11:00;;;;;;;6.45;1.50;;;;;;;;;;5330092;27;19912;-86
2022/06/09 14:13:36;;;;;;;4.15;1.20;;;;;;;;;;5329195;27;20106;-86
2022/06/09 14:16:09;;;;;;;5.03;1.77;;;;;;;;;;5307691;27;20024;-86
2022/06/09 14:18:41;;;;;;;8.43;1.45;;;;;;;;;;5351718;27;20360;-86
2022/06/09 14:21:12;;;;;;;5.15;1.35;;;;;;;;;;5328805;27;20042;-85
2022/06/09 14:23:44;;;;;;;4.10;1.40;;;;;;;;;;5308443;28;20150;-85
2022/06/09 14:26:18;;;;;;;7.80;1.45;;;;;;;;;;5309085;28;20040;-86
2022/06/09 14:28:52;;;;;;;9.18;1.50;;;;;;;;;;5319054;27;20107;-86
2022/06/09 14:31:24;;;;;;;8.90;1.80;;;;;;;;;;5291010;28;20032;-85
2022/06/09 14:33:56;;;;;;;6.35;1.40;;;;;;;;;;5289012;27;20115;-87
2022/06/09 14:36:32;;;;;;;4.63;1.58;;;;;;;;;;5334075;27;20039;-87
2022/06/09 14:39:07;;;;;;;4.32;1.35;;;;;;;;;;5297650;28;20032;-87
2022/06/09 14:41:38;;;;;;;5.10;1.70;;;;;;;;;;5324002;27;20400;-86
2022/06/09 14:44:10;;;;;;;8.30;1.77;;;;;;;;;;5294372;28;20033;-86
2022/06/09 14:46:43;;;;;;;9.88;2.08;;;;;;;;;;5309218;27;20037;-86
2022/06/09 14:49:17;;;;;;;5.13;1.55;;;;;;;;;;5327377;27;20334;-86
2022/06/09 14:51:49;;;;;;;8.10;2.03;;;;;;;;;;5322276;27;20040;-85
2022/06/09 14:54:22;;;;;;;5.90;1.88;;;;;;;;;;5320461;27;20055;-88
2022/06/09 14:56:55;;;;;;;4.85;1.77;;;;;;;;;;5294010;27;20890;-86
2022/06/09 14:59:26;;;;;;;6.60;1.70;;;;;;;;;;5315514;28;20092;-87
2022/06/09 15:02:00;;;;;;;6.95;1.85;;;;;;;;;;5325852;27;20111;-87
2022/06/09 15:04:41;;;;;;;5.90;1.33;;;;;;;;;;5299144;27;20024;-86
2022/06/09 15:07:16;;;;;;;3.15;1.20;;;;;;;;;;5324753;27;20048;-87
2022/06/09 15:09:50;;;;;;;6.25;1.42;;;;;;;;;;5308207;27;20024;-87
2022/06/09 15:12:25;;;;;;;6.65;1.40;;;;;;;;;;5323936;27;20102;-87
2022/06/09 15:14:56;;;;;;;6.45;1.15;;;;;;;;;;5327554;27;20841;-87
2022/06/09 15:17:33;;;;;;;6.40;1.77;;;;;;;;;;5330511;27;20032;-87
2022/06/09 15:20:08;;;;;;;7.07;1.67;;;;;;;;;;5308073;27;20071;-87
2022/06/09 15:22:39;;;;;;;9.10;2.45;;;;;;;;;;5308012;28;20028;-87
2022/06/09 15:25:11;;;;;;;10.73;1.55;;;;;;;;;;5306991;28;20395;-87
2022/06/09 15:27:43;;;;;;;6.75;1.85;;;;;;;;;;5307890;28;20035;-87
2022/06/09 15:30:20;;;;;;;10.88;2.55;;;;;;;;;;5312387;27;20133;-87
2022/06/09 15:32:56;;;;;;;5.78;1.98;;;;;;;;;;5314481;27;20507;-88
2022/06/09 15:35:28;;;;;;;8.10;2.00;;;;;;;;;;5306906;28;20388;-86
2022/06/09 15:37:59;;;;;;;5.88;1.38;;;;;;;;;;5307543;28;20103;-87
2022/06/09 15:40:38;;;;;;;5.00;1.40;;;;;;;;;;5325723;27;20024;-87
2022/06/09 15:43:09;;;;;;;8.38;1.80;;;;;;;;;;5307170;28;20036;-87
2022/06/09 15:45:43;;;;;;;9.23;2.58;;;;;;;;;;5329502;27;20036;-87
2022/06/09 15:48:19;;;;;;;7.95;1.45;;;;;;;;;;5313491;27;20078;-87
2022/06/09 15:50:50;;;;;;;6.85;1.45;;;;;;;;;;5296513;28;20039;-87